UAB weather

İncirlik Air Base
Adana, Adana Province, Turkey

Public forecast

Using degrees Celsius for public forecast. Weather courtesy of forecast.io.

Current aviation weather report (METAR) for İncirlik Air Base

Retrieved 2019/11/17 18:20 UTC (40 minutes ago):

LTAG 171820Z 02003KT CAVOK 12/05 Q1021 NOSIG

Aviation forecast (TAF) for İncirlik Air Base

Retrieved 2019/11/17 18:03 UTC (57 minutes ago):

TAF LTAG 171640Z 1718/1818 VRB02KT CAVOK